sensor_id;sensor_type;location;lat;lon;timestamp;P1;durP1;ratioP1;P2;durP2;ratioP2
5650;SDS011;40241;52.684;9.758;2023-08-07T00:00:12;1.50;;;1.40;;
5650;SDS011;40241;52.684;9.758;2023-08-07T00:02:37;1.70;;;1.60;;
5650;SDS011;40241;52.684;9.758;2023-08-07T00:05:03;1.70;;;1.60;;
5650;SDS011;40241;52.684;9.758;2023-08-07T00:07:29;1.23;;;1.00;;
5650;SDS011;40241;52.684;9.758;2023-08-07T00:09:54;2.03;;;1.60;;
5650;SDS011;40241;52.684;9.758;2023-08-07T00:12:19;1.80;;;1.40;;
5650;SDS011;40241;52.684;9.758;2023-08-07T00:14:47;1.30;;;1.20;;
5650;SDS011;40241;52.684;9.758;2023-08-07T00:17:12;1.50;;;1.40;;
5650;SDS011;40241;52.684;9.758;2023-08-07T00:19:38;1.80;;;1.63;;
5650;SDS011;40241;52.684;9.758;2023-08-07T00:22:03;2.13;;;1.70;;
5650;SDS011;40241;52.684;9.758;2023-08-07T00:24:29;1.70;;;1.43;;
5650;SDS011;40241;52.684;9.758;2023-08-07T00:26:54;1.80;;;1.33;;
5650;SDS011;40241;52.684;9.758;2023-08-07T00:29:19;9.37;;;1.70;;
5650;SDS011;40241;52.684;9.758;2023-08-07T00:31:44;1.50;;;1.37;;
5650;SDS011;40241;52.684;9.758;2023-08-07T00:34:10;1.53;;;1.43;;
5650;SDS011;40241;52.684;9.758;2023-08-07T00:36:35;1.37;;;1.27;;
5650;SDS011;40241;52.684;9.758;2023-08-07T00:39:01;1.40;;;1.30;;
5650;SDS011;40241;52.684;9.758;2023-08-07T00:41:28;2.17;;;1.63;;
5650;SDS011;40241;52.684;9.758;2023-08-07T00:43:54;1.93;;;1.83;;
5650;SDS011;40241;52.684;9.758;2023-08-07T00:46:19;1.87;;;1.77;;
5650;SDS011;40241;52.684;9.758;2023-08-07T00:48:45;1.40;;;1.30;;
5650;SDS011;40241;52.684;9.758;2023-08-07T00:51:10;1.40;;;1.30;;
5650;SDS011;40241;52.684;9.758;2023-08-07T00:53:37;4.40;;;1.80;;
5650;SDS011;40241;52.684;9.758;2023-08-07T00:56:04;2.50;;;1.90;;
5650;SDS011;40241;52.684;9.758;2023-08-07T00:58:30;1.80;;;1.70;;
5650;SDS011;40241;52.684;9.758;2023-08-07T01:00:57;1.80;;;1.70;;
5650;SDS011;40241;52.684;9.758;2023-08-07T01:03:22;2.33;;;2.23;;
5650;SDS011;40241;52.684;9.758;2023-08-07T01:05:48;3.33;;;1.87;;
5650;SDS011;40241;52.684;9.758;2023-08-07T01:08:13;2.50;;;2.30;;
5650;SDS011;40241;52.684;9.758;2023-08-07T01:10:43;2.23;;;2.00;;
5650;SDS011;40241;52.684;9.758;2023-08-07T01:13:30;2.70;;;2.33;;
5650;SDS011;40241;52.684;9.758;2023-08-07T01:16:01;2.60;;;2.40;;
5650;SDS011;40241;52.684;9.758;2023-08-07T01:18:34;2.87;;;2.20;;
5650;SDS011;40241;52.684;9.758;2023-08-07T01:21:00;2.20;;;2.00;;
5650;SDS011;40241;52.684;9.758;2023-08-07T01:23:25;2.00;;;1.90;;
5650;SDS011;40241;52.684;9.758;2023-08-07T01:25:51;2.40;;;2.00;;
5650;SDS011;40241;52.684;9.758;2023-08-07T01:28:19;2.37;;;2.17;;
5650;SDS011;40241;52.684;9.758;2023-08-07T01:30:55;3.17;;;2.57;;
5650;SDS011;40241;52.684;9.758;2023-08-07T01:33:41;2.43;;;2.23;;
5650;SDS011;40241;52.684;9.758;2023-08-07T01:36:13;3.73;;;1.90;;
5650;SDS011;40241;52.684;9.758;2023-08-07T01:38:39;2.70;;;2.20;;
5650;SDS011;40241;52.684;9.758;2023-08-07T01:41:06;2.30;;;2.20;;
5650;SDS011;40241;52.684;9.758;2023-08-07T01:43:31;2.47;;;2.27;;
5650;SDS011;40241;52.684;9.758;2023-08-07T01:45:57;4.27;;;2.33;;
5650;SDS011;40241;52.684;9.758;2023-08-07T01:48:23;3.03;;;1.80;;
5650;SDS011;40241;52.684;9.758;2023-08-07T01:50:48;4.10;;;2.27;;
5650;SDS011;40241;52.684;9.758;2023-08-07T01:53:14;2.70;;;2.50;;
5650;SDS011;40241;52.684;9.758;2023-08-07T01:55:39;4.57;;;2.33;;
5650;SDS011;40241;52.684;9.758;2023-08-07T01:58:04;4.03;;;2.60;;
5650;SDS011;40241;52.684;9.758;2023-08-07T02:00:30;2.57;;;2.30;;
5650;SDS011;40241;52.684;9.758;2023-08-07T02:02:56;3.97;;;2.40;;
5650;SDS011;40241;52.684;9.758;2023-08-07T02:05:21;2.27;;;2.07;;
5650;SDS011;40241;52.684;9.758;2023-08-07T02:07:47;3.60;;;2.30;;
5650;SDS011;40241;52.684;9.758;2023-08-07T02:10:12;2.00;;;1.90;;
5650;SDS011;40241;52.684;9.758;2023-08-07T02:12:37;2.67;;;2.47;;
5650;SDS011;40241;52.684;9.758;2023-08-07T02:15:03;3.83;;;2.80;;
5650;SDS011;40241;52.684;9.758;2023-08-07T02:17:29;2.13;;;2.00;;
5650;SDS011;40241;52.684;9.758;2023-08-07T02:19:57;2.70;;;2.50;;
5650;SDS011;40241;52.684;9.758;2023-08-07T02:22:23;1.90;;;1.80;;
5650;SDS011;40241;52.684;9.758;2023-08-07T02:24:48;2.37;;;2.27;;
5650;SDS011;40241;52.684;9.758;2023-08-07T02:27:14;2.30;;;2.10;;
5650;SDS011;40241;52.684;9.758;2023-08-07T02:29:39;2.63;;;2.23;;
5650;SDS011;40241;52.684;9.758;2023-08-07T02:32:05;3.07;;;2.80;;
5650;SDS011;40241;52.684;9.758;2023-08-07T02:34:30;2.40;;;2.30;;
5650;SDS011;40241;52.684;9.758;2023-08-07T02:36:56;2.37;;;2.23;;
5650;SDS011;40241;52.684;9.758;2023-08-07T02:39:22;3.60;;;2.70;;
5650;SDS011;40241;52.684;9.758;2023-08-07T02:41:47;2.80;;;2.60;;
5650;SDS011;40241;52.684;9.758;2023-08-07T02:44:13;4.57;;;2.80;;
5650;SDS011;40241;52.684;9.758;2023-08-07T02:46:38;2.67;;;2.47;;
5650;SDS011;40241;52.684;9.758;2023-08-07T02:49:03;3.27;;;2.40;;
5650;SDS011;40241;52.684;9.758;2023-08-07T02:51:30;2.83;;;2.47;;
5650;SDS011;40241;52.684;9.758;2023-08-07T02:53:56;8.63;;;2.83;;
5650;SDS011;40241;52.684;9.758;2023-08-07T02:56:21;3.57;;;2.30;;
5650;SDS011;40241;52.684;9.758;2023-08-07T02:58:46;2.77;;;2.57;;
5650;SDS011;40241;52.684;9.758;2023-08-07T03:01:12;6.63;;;2.90;;
5650;SDS011;40241;52.684;9.758;2023-08-07T03:03:38;3.83;;;3.00;;
5650;SDS011;40241;52.684;9.758;2023-08-07T03:06:03;2.70;;;2.50;;
5650;SDS011;40241;52.684;9.758;2023-08-07T03:08:29;2.50;;;2.23;;
5650;SDS011;40241;52.684;9.758;2023-08-07T03:10:55;3.23;;;2.40;;
5650;SDS011;40241;52.684;9.758;2023-08-07T03:13:22;3.30;;;3.10;;
5650;SDS011;40241;52.684;9.758;2023-08-07T03:15:48;3.47;;;3.13;;
5650;SDS011;40241;52.684;9.758;2023-08-07T03:18:16;3.50;;;3.20;;
5650;SDS011;40241;52.684;9.758;2023-08-07T03:20:42;2.57;;;2.47;;
5650;SDS011;40241;52.684;9.758;2023-08-07T03:23:08;3.07;;;2.77;;
5650;SDS011;40241;52.684;9.758;2023-08-07T03:25:34;4.13;;;2.87;;
5650;SDS011;40241;52.684;9.758;2023-08-07T03:28:00;3.47;;;3.17;;
5650;SDS011;40241;52.684;9.758;2023-08-07T03:30:25;3.30;;;2.90;;
5650;SDS011;40241;52.684;9.758;2023-08-07T03:32:50;3.40;;;3.10;;
5650;SDS011;40241;52.684;9.758;2023-08-07T03:35:16;2.57;;;2.43;;
5650;SDS011;40241;52.684;9.758;2023-08-07T03:37:41;4.03;;;3.20;;
5650;SDS011;40241;52.684;9.758;2023-08-07T03:40:06;3.33;;;3.03;;
5650;SDS011;40241;52.684;9.758;2023-08-07T03:42:32;3.60;;;2.80;;
5650;SDS011;40241;52.684;9.758;2023-08-07T03:44:57;3.23;;;2.80;;
5650;SDS011;40241;52.684;9.758;2023-08-07T03:47:23;3.03;;;2.73;;
5650;SDS011;40241;52.684;9.758;2023-08-07T03:49:48;2.90;;;2.70;;
5650;SDS011;40241;52.684;9.758;2023-08-07T03:52:14;3.13;;;2.93;;
5650;SDS011;40241;52.684;9.758;2023-08-07T03:54:39;3.20;;;3.00;;
5650;SDS011;40241;52.684;9.758;2023-08-07T03:57:05;3.23;;;2.93;;
5650;SDS011;40241;52.684;9.758;2023-08-07T03:59:30;2.87;;;2.63;;
5650;SDS011;40241;52.684;9.758;2023-08-07T04:01:55;3.70;;;3.40;;
5650;SDS011;40241;52.684;9.758;2023-08-07T04:04:21;4.00;;;3.10;;
5650;SDS011;40241;52.684;9.758;2023-08-07T04:06:46;3.40;;;3.20;;
5650;SDS011;40241;52.684;9.758;2023-08-07T04:09:11;4.10;;;3.40;;
5650;SDS011;40241;52.684;9.758;2023-08-07T04:11:37;5.40;;;3.77;;
5650;SDS011;40241;52.684;9.758;2023-08-07T04:14:02;2.83;;;2.63;;
5650;SDS011;40241;52.684;9.758;2023-08-07T04:16:29;3.10;;;2.90;;
5650;SDS011;40241;52.684;9.758;2023-08-07T04:18:56;4.13;;;3.77;;
5650;SDS011;40241;52.684;9.758;2023-08-07T04:21:21;5.70;;;4.17;;
5650;SDS011;40241;52.684;9.758;2023-08-07T04:23:46;3.40;;;3.10;;
5650;SDS011;40241;52.684;9.758;2023-08-07T04:26:12;4.13;;;3.73;;
5650;SDS011;40241;52.684;9.758;2023-08-07T04:28:37;3.60;;;3.10;;
5650;SDS011;40241;52.684;9.758;2023-08-07T04:31:02;7.37;;;3.60;;
5650;SDS011;40241;52.684;9.758;2023-08-07T04:33:27;4.13;;;3.10;;
5650;SDS011;40241;52.684;9.758;2023-08-07T04:35:53;4.63;;;3.60;;
5650;SDS011;40241;52.684;9.758;2023-08-07T04:38:19;4.87;;;3.70;;
5650;SDS011;40241;52.684;9.758;2023-08-07T04:40:48;3.73;;;3.30;;
5650;SDS011;40241;52.684;9.758;2023-08-07T04:43:14;3.97;;;3.60;;
5650;SDS011;40241;52.684;9.758;2023-08-07T04:45:41;3.43;;;3.00;;
5650;SDS011;40241;52.684;9.758;2023-08-07T04:48:07;3.60;;;3.30;;
5650;SDS011;40241;52.684;9.758;2023-08-07T04:50:33;4.00;;;3.10;;
5650;SDS011;40241;52.684;9.758;2023-08-07T04:52:59;5.47;;;3.40;;
5650;SDS011;40241;52.684;9.758;2023-08-07T04:55:24;3.30;;;2.90;;
5650;SDS011;40241;52.684;9.758;2023-08-07T04:57:50;2.87;;;2.67;;
5650;SDS011;40241;52.684;9.758;2023-08-07T05:00:19;4.50;;;2.60;;
5650;SDS011;40241;52.684;9.758;2023-08-07T05:02:44;5.13;;;3.20;;
5650;SDS011;40241;52.684;9.758;2023-08-07T05:05:09;3.60;;;3.20;;
5650;SDS011;40241;52.684;9.758;2023-08-07T05:07:35;3.50;;;3.20;;
5650;SDS011;40241;52.684;9.758;2023-08-07T05:10:03;7.00;;;3.40;;
5650;SDS011;40241;52.684;9.758;2023-08-07T05:12:29;3.17;;;2.97;;
5650;SDS011;40241;52.684;9.758;2023-08-07T05:14:54;3.43;;;3.13;;
5650;SDS011;40241;52.684;9.758;2023-08-07T05:17:19;6.10;;;3.07;;
5650;SDS011;40241;52.684;9.758;2023-08-07T05:19:45;2.90;;;2.70;;
5650;SDS011;40241;52.684;9.758;2023-08-07T05:22:10;3.57;;;3.00;;
5650;SDS011;40241;52.684;9.758;2023-08-07T05:24:35;4.57;;;2.87;;
5650;SDS011;40241;52.684;9.758;2023-08-07T05:27:05;3.67;;;2.27;;
5650;SDS011;40241;52.684;9.758;2023-08-07T05:29:33;2.63;;;2.43;;
5650;SDS011;40241;52.684;9.758;2023-08-07T05:31:58;2.53;;;2.43;;
5650;SDS011;40241;52.684;9.758;2023-08-07T05:34:23;2.27;;;2.07;;
5650;SDS011;40241;52.684;9.758;2023-08-07T05:36:49;3.20;;;2.90;;
5650;SDS011;40241;52.684;9.758;2023-08-07T05:39:14;2.03;;;1.90;;
5650;SDS011;40241;52.684;9.758;2023-08-07T05:41:39;2.40;;;2.20;;
5650;SDS011;40241;52.684;9.758;2023-08-07T05:44:05;2.20;;;2.00;;
5650;SDS011;40241;52.684;9.758;2023-08-07T05:46:30;2.07;;;1.97;;
5650;SDS011;40241;52.684;9.758;2023-08-07T05:48:56;2.30;;;2.10;;
5650;SDS011;40241;52.684;9.758;2023-08-07T05:51:21;2.47;;;2.27;;
5650;SDS011;40241;52.684;9.758;2023-08-07T05:53:46;1.97;;;1.87;;
5650;SDS011;40241;52.684;9.758;2023-08-07T05:56:12;2.67;;;2.23;;
5650;SDS011;40241;52.684;9.758;2023-08-07T05:58:37;2.20;;;2.00;;
5650;SDS011;40241;52.684;9.758;2023-08-07T06:01:03;2.40;;;2.20;;
5650;SDS011;40241;52.684;9.758;2023-08-07T06:03:28;3.20;;;2.70;;
5650;SDS011;40241;52.684;9.758;2023-08-07T06:05:53;3.47;;;2.30;;
5650;SDS011;40241;52.684;9.758;2023-08-07T06:08:19;2.30;;;2.20;;
5650;SDS011;40241;52.684;9.758;2023-08-07T06:10:44;2.40;;;2.20;;
5650;SDS011;40241;52.684;9.758;2023-08-07T06:13:09;2.20;;;2.00;;
5650;SDS011;40241;52.684;9.758;2023-08-07T06:15:35;2.23;;;2.00;;
5650;SDS011;40241;52.684;9.758;2023-08-07T06:18:00;2.83;;;2.20;;
5650;SDS011;40241;52.684;9.758;2023-08-07T06:20:25;3.70;;;3.10;;
5650;SDS011;40241;52.684;9.758;2023-08-07T06:22:51;2.03;;;1.93;;
5650;SDS011;40241;52.684;9.758;2023-08-07T06:25:16;1.93;;;1.83;;
5650;SDS011;40241;52.684;9.758;2023-08-07T06:27:43;4.47;;;2.40;;
5650;SDS011;40241;52.684;9.758;2023-08-07T06:30:08;2.93;;;2.20;;
5650;SDS011;40241;52.684;9.758;2023-08-07T06:32:34;2.20;;;2.00;;
5650;SDS011;40241;52.684;9.758;2023-08-07T06:34:59;2.87;;;2.07;;
5650;SDS011;40241;52.684;9.758;2023-08-07T06:37:24;2.60;;;2.40;;
5650;SDS011;40241;52.684;9.758;2023-08-07T06:39:50;2.10;;;1.90;;
5650;SDS011;40241;52.684;9.758;2023-08-07T06:42:15;2.23;;;1.93;;
5650;SDS011;40241;52.684;9.758;2023-08-07T06:44:41;1.80;;;1.70;;
5650;SDS011;40241;52.684;9.758;2023-08-07T06:47:06;1.60;;;1.50;;
5650;SDS011;40241;52.684;9.758;2023-08-07T06:49:32;1.97;;;1.77;;
5650;SDS011;40241;52.684;9.758;2023-08-07T06:51:58;7.23;;;1.43;;
5650;SDS011;40241;52.684;9.758;2023-08-07T06:54:23;1.90;;;1.80;;
5650;SDS011;40241;52.684;9.758;2023-08-07T06:56:49;7.13;;;1.87;;
5650;SDS011;40241;52.684;9.758;2023-08-07T06:59:14;1.70;;;1.60;;
5650;SDS011;40241;52.684;9.758;2023-08-07T07:01:39;3.57;;;1.53;;
5650;SDS011;40241;52.684;9.758;2023-08-07T07:04:05;1.83;;;1.40;;
5650;SDS011;40241;52.684;9.758;2023-08-07T07:06:30;3.70;;;1.73;;
5650;SDS011;40241;52.684;9.758;2023-08-07T07:08:56;1.73;;;1.63;;
5650;SDS011;40241;52.684;9.758;2023-08-07T07:11:24;1.93;;;1.43;;
5650;SDS011;40241;52.684;9.758;2023-08-07T07:13:49;1.57;;;1.47;;
5650;SDS011;40241;52.684;9.758;2023-08-07T07:16:16;2.17;;;1.60;;
5650;SDS011;40241;52.684;9.758;2023-08-07T07:18:46;7.43;;;1.90;;
5650;SDS011;40241;52.684;9.758;2023-08-07T07:21:12;1.50;;;1.40;;
5650;SDS011;40241;52.684;9.758;2023-08-07T07:23:37;1.60;;;1.47;;
5650;SDS011;40241;52.684;9.758;2023-08-07T07:26:03;2.40;;;1.30;;
5650;SDS011;40241;52.684;9.758;2023-08-07T07:28:28;1.50;;;1.40;;
5650;SDS011;40241;52.684;9.758;2023-08-07T07:30:53;1.60;;;1.50;;
5650;SDS011;40241;52.684;9.758;2023-08-07T07:33:19;2.20;;;1.50;;
5650;SDS011;40241;52.684;9.758;2023-08-07T07:35:44;1.70;;;1.60;;
5650;SDS011;40241;52.684;9.758;2023-08-07T07:38:10;1.47;;;1.37;;
5650;SDS011;40241;52.684;9.758;2023-08-07T07:40:35;3.03;;;2.00;;
5650;SDS011;40241;52.684;9.758;2023-08-07T07:43:01;1.57;;;1.47;;
5650;SDS011;40241;52.684;9.758;2023-08-07T07:45:26;2.30;;;1.47;;
5650;SDS011;40241;52.684;9.758;2023-08-07T07:47:52;2.03;;;1.83;;
5650;SDS011;40241;52.684;9.758;2023-08-07T07:50:17;2.00;;;1.67;;
5650;SDS011;40241;52.684;9.758;2023-08-07T07:52:42;1.70;;;1.60;;
5650;SDS011;40241;52.684;9.758;2023-08-07T07:55:09;1.60;;;1.50;;
5650;SDS011;40241;52.684;9.758;2023-08-07T07:57:34;1.67;;;1.57;;
5650;SDS011;40241;52.684;9.758;2023-08-07T08:00:00;3.97;;;1.80;;
5650;SDS011;40241;52.684;9.758;2023-08-07T08:02:26;7.60;;;2.20;;
5650;SDS011;40241;52.684;9.758;2023-08-07T08:04:51;2.17;;;2.00;;
5650;SDS011;40241;52.684;9.758;2023-08-07T08:07:17;2.50;;;1.73;;
5650;SDS011;40241;52.684;9.758;2023-08-07T08:09:43;2.10;;;2.00;;
5650;SDS011;40241;52.684;9.758;2023-08-07T08:12:09;3.13;;;2.13;;
5650;SDS011;40241;52.684;9.758;2023-08-07T08:14:35;4.13;;;2.30;;
5650;SDS011;40241;52.684;9.758;2023-08-07T08:17:00;3.13;;;1.70;;
5650;SDS011;40241;52.684;9.758;2023-08-07T08:19:25;4.13;;;1.70;;
5650;SDS011;40241;52.684;9.758;2023-08-07T08:21:51;2.20;;;1.90;;
5650;SDS011;40241;52.684;9.758;2023-08-07T08:24:16;1.83;;;1.70;;
5650;SDS011;40241;52.684;9.758;2023-08-07T08:26:41;3.17;;;1.50;;
5650;SDS011;40241;52.684;9.758;2023-08-07T08:29:06;1.83;;;1.73;;
5650;SDS011;40241;52.684;9.758;2023-08-07T08:31:33;1.77;;;1.30;;
5650;SDS011;40241;52.684;9.758;2023-08-07T08:33:59;3.03;;;1.60;;
5650;SDS011;40241;52.684;9.758;2023-08-07T08:36:24;4.40;;;1.70;;
5650;SDS011;40241;52.684;9.758;2023-08-07T08:38:50;1.93;;;1.23;;
5650;SDS011;40241;52.684;9.758;2023-08-07T08:41:16;1.93;;;1.80;;
5650;SDS011;40241;52.684;9.758;2023-08-07T08:43:42;5.30;;;1.47;;
5650;SDS011;40241;52.684;9.758;2023-08-07T08:46:10;2.70;;;1.57;;
5650;SDS011;40241;52.684;9.758;2023-08-07T08:48:36;2.73;;;1.67;;
5650;SDS011;40241;52.684;9.758;2023-08-07T08:51:04;3.27;;;1.70;;
5650;SDS011;40241;52.684;9.758;2023-08-07T08:53:30;1.70;;;1.60;;
5650;SDS011;40241;52.684;9.758;2023-08-07T08:55:57;3.10;;;1.63;;
5650;SDS011;40241;52.684;9.758;2023-08-07T08:58:22;2.20;;;1.70;;
5650;SDS011;40241;52.684;9.758;2023-08-07T09:00:48;3.77;;;2.27;;
5650;SDS011;40241;52.684;9.758;2023-08-07T09:03:14;1.93;;;1.73;;
5650;SDS011;40241;52.684;9.758;2023-08-07T09:05:40;6.30;;;1.80;;
5650;SDS011;40241;52.684;9.758;2023-08-07T09:08:06;6.80;;;2.20;;
5650;SDS011;40241;52.684;9.758;2023-08-07T09:10:33;5.87;;;2.13;;
5650;SDS011;40241;52.684;9.758;2023-08-07T09:13:04;3.27;;;1.60;;
5650;SDS011;40241;52.684;9.758;2023-08-07T09:15:34;4.40;;;1.83;;
5650;SDS011;40241;52.684;9.758;2023-08-07T09:18:02;4.43;;;2.07;;
5650;SDS011;40241;52.684;9.758;2023-08-07T09:20:32;5.77;;;2.10;;
5650;SDS011;40241;52.684;9.758;2023-08-07T09:22:59;3.73;;;1.57;;
5650;SDS011;40241;52.684;9.758;2023-08-07T09:25:28;2.90;;;1.47;;
5650;SDS011;40241;52.684;9.758;2023-08-07T09:27:55;4.77;;;2.00;;
5650;SDS011;40241;52.684;9.758;2023-08-07T09:30:25;5.00;;;2.40;;
5650;SDS011;40241;52.684;9.758;2023-08-07T09:32:51;2.93;;;1.80;;
5650;SDS011;40241;52.684;9.758;2023-08-07T09:35:20;7.23;;;2.10;;
5650;SDS011;40241;52.684;9.758;2023-08-07T09:37:46;5.03;;;1.87;;
5650;SDS011;40241;52.684;9.758;2023-08-07T09:40:11;7.70;;;2.03;;
5650;SDS011;40241;52.684;9.758;2023-08-07T09:42:40;3.07;;;1.70;;
5650;SDS011;40241;52.684;9.758;2023-08-07T09:45:18;4.40;;;2.00;;
5650;SDS011;40241;52.684;9.758;2023-08-07T09:48:00;3.40;;;1.30;;
5650;SDS011;40241;52.684;9.758;2023-08-07T09:50:27;3.50;;;1.67;;
5650;SDS011;40241;52.684;9.758;2023-08-07T09:52:53;3.33;;;1.50;;
5650;SDS011;40241;52.684;9.758;2023-08-07T09:55:23;3.50;;;1.90;;
5650;SDS011;40241;52.684;9.758;2023-08-07T09:57:49;2.17;;;1.30;;
5650;SDS011;40241;52.684;9.758;2023-08-07T10:00:15;3.97;;;2.20;;
5650;SDS011;40241;52.684;9.758;2023-08-07T10:02:42;4.77;;;1.67;;
5650;SDS011;40241;52.684;9.758;2023-08-07T10:05:09;5.90;;;1.90;;
5650;SDS011;40241;52.684;9.758;2023-08-07T10:07:39;2.33;;;1.57;;
5650;SDS011;40241;52.684;9.758;2023-08-07T10:10:06;4.07;;;1.73;;
5650;SDS011;40241;52.684;9.758;2023-08-07T10:12:33;4.10;;;1.33;;
5650;SDS011;40241;52.684;9.758;2023-08-07T10:14:59;3.87;;;1.57;;
5650;SDS011;40241;52.684;9.758;2023-08-07T10:17:25;3.43;;;1.60;;
5650;SDS011;40241;52.684;9.758;2023-08-07T10:19:51;2.50;;;1.60;;
5650;SDS011;40241;52.684;9.758;2023-08-07T10:22:18;4.07;;;1.63;;
5650;SDS011;40241;52.684;9.758;2023-08-07T10:24:45;4.60;;;1.30;;
5650;SDS011;40241;52.684;9.758;2023-08-07T10:27:13;3.23;;;1.67;;
5650;SDS011;40241;52.684;9.758;2023-08-07T10:29:44;2.33;;;1.40;;
5650;SDS011;40241;52.684;9.758;2023-08-07T10:32:12;6.90;;;1.80;;
5650;SDS011;40241;52.684;9.758;2023-08-07T10:34:40;4.23;;;1.70;;
5650;SDS011;40241;52.684;9.758;2023-08-07T10:37:21;3.43;;;1.40;;
5650;SDS011;40241;52.684;9.758;2023-08-07T10:40:03;5.30;;;1.50;;
5650;SDS011;40241;52.684;9.758;2023-08-07T10:42:33;4.37;;;1.70;;
5650;SDS011;40241;52.684;9.758;2023-08-07T10:45:20;2.97;;;1.77;;
5650;SDS011;40241;52.684;9.758;2023-08-07T10:48:06;3.00;;;1.67;;
5650;SDS011;40241;52.684;9.758;2023-08-07T10:50:35;2.70;;;1.50;;
5650;SDS011;40241;52.684;9.758;2023-08-07T10:53:11;4.40;;;1.50;;
5650;SDS011;40241;52.684;9.758;2023-08-07T10:55:46;1.67;;;1.50;;
5650;SDS011;40241;52.684;9.758;2023-08-07T10:58:25;3.10;;;2.00;;
5650;SDS011;40241;52.684;9.758;2023-08-07T11:03:45;5.47;;;1.77;;
5650;SDS011;40241;52.684;9.758;2023-08-07T11:06:17;3.40;;;1.60;;
5650;SDS011;40241;52.684;9.758;2023-08-07T11:08:46;6.20;;;1.87;;
5650;SDS011;40241;52.684;9.758;2023-08-07T11:11:13;7.70;;;1.63;;
5650;SDS011;40241;52.684;9.758;2023-08-07T11:13:38;5.20;;;1.93;;
5650;SDS011;40241;52.684;9.758;2023-08-07T11:16:03;2.43;;;1.80;;
5650;SDS011;40241;52.684;9.758;2023-08-07T11:18:30;5.63;;;1.90;;
5650;SDS011;40241;52.684;9.758;2023-08-07T11:20:55;5.70;;;1.73;;
5650;SDS011;40241;52.684;9.758;2023-08-07T11:23:24;3.53;;;1.63;;
5650;SDS011;40241;52.684;9.758;2023-08-07T11:25:50;4.40;;;2.00;;
5650;SDS011;40241;52.684;9.758;2023-08-07T11:28:20;4.97;;;2.00;;
5650;SDS011;40241;52.684;9.758;2023-08-07T11:30:48;4.90;;;1.50;;
5650;SDS011;40241;52.684;9.758;2023-08-07T11:33:14;3.27;;;1.47;;
5650;SDS011;40241;52.684;9.758;2023-08-07T11:35:41;3.53;;;1.83;;
5650;SDS011;40241;52.684;9.758;2023-08-07T11:38:07;2.70;;;1.30;;
5650;SDS011;40241;52.684;9.758;2023-08-07T11:40:33;4.30;;;1.47;;
5650;SDS011;40241;52.684;9.758;2023-08-07T11:42:58;4.07;;;2.03;;
5650;SDS011;40241;52.684;9.758;2023-08-07T11:45:24;4.93;;;1.80;;
5650;SDS011;40241;52.684;9.758;2023-08-07T11:47:49;2.90;;;1.50;;
5650;SDS011;40241;52.684;9.758;2023-08-07T11:50:14;2.30;;;1.63;;
5650;SDS011;40241;52.684;9.758;2023-08-07T11:52:40;7.73;;;1.93;;
5650;SDS011;40241;52.684;9.758;2023-08-07T11:55:05;2.57;;;1.23;;
5650;SDS011;40241;52.684;9.758;2023-08-07T11:57:32;3.93;;;1.40;;
5650;SDS011;40241;52.684;9.758;2023-08-07T11:59:58;3.43;;;1.27;;
5650;SDS011;40241;52.684;9.758;2023-08-07T12:02:24;1.30;;;1.00;;
5650;SDS011;40241;52.684;9.758;2023-08-07T12:04:49;3.23;;;0.83;;
5650;SDS011;40241;52.684;9.758;2023-08-07T12:07:18;2.33;;;0.87;;
5650;SDS011;40241;52.684;9.758;2023-08-07T12:09:44;1.60;;;0.80;;
5650;SDS011;40241;52.684;9.758;2023-08-07T12:12:10;1.23;;;0.63;;
5650;SDS011;40241;52.684;9.758;2023-08-07T12:14:36;1.53;;;0.73;;
5650;SDS011;40241;52.684;9.758;2023-08-07T12:17:03;0.80;;;0.80;;
5650;SDS011;40241;52.684;9.758;2023-08-07T12:19:35;1.43;;;0.67;;
5650;SDS011;40241;52.684;9.758;2023-08-07T12:22:02;0.90;;;0.77;;
5650;SDS011;40241;52.684;9.758;2023-08-07T12:24:29;1.60;;;1.10;;
5650;SDS011;40241;52.684;9.758;2023-08-07T12:26:54;2.27;;;1.13;;
5650;SDS011;40241;52.684;9.758;2023-08-07T12:29:19;1.87;;;1.10;;
5650;SDS011;40241;52.684;9.758;2023-08-07T12:31:45;1.73;;;1.00;;
5650;SDS011;40241;52.684;9.758;2023-08-07T12:34:11;2.20;;;1.00;;
5650;SDS011;40241;52.684;9.758;2023-08-07T12:36:36;3.00;;;1.20;;
5650;SDS011;40241;52.684;9.758;2023-08-07T12:39:01;1.73;;;1.07;;
5650;SDS011;40241;52.684;9.758;2023-08-07T12:41:27;3.43;;;1.50;;
5650;SDS011;40241;52.684;9.758;2023-08-07T12:43:52;1.63;;;1.20;;
5650;SDS011;40241;52.684;9.758;2023-08-07T12:46:18;3.47;;;1.30;;
5650;SDS011;40241;52.684;9.758;2023-08-07T12:48:43;2.50;;;1.50;;
5650;SDS011;40241;52.684;9.758;2023-08-07T12:51:08;1.83;;;1.40;;
5650;SDS011;40241;52.684;9.758;2023-08-07T12:53:34;6.30;;;1.30;;
5650;SDS011;40241;52.684;9.758;2023-08-07T12:55:59;3.20;;;1.40;;
5650;SDS011;40241;52.684;9.758;2023-08-07T12:58:24;2.33;;;1.27;;
5650;SDS011;40241;52.684;9.758;2023-08-07T13:00:50;4.47;;;1.37;;
5650;SDS011;40241;52.684;9.758;2023-08-07T13:03:16;3.67;;;1.43;;
5650;SDS011;40241;52.684;9.758;2023-08-07T13:05:41;1.97;;;1.30;;
5650;SDS011;40241;52.684;9.758;2023-08-07T13:08:06;3.40;;;1.50;;
5650;SDS011;40241;52.684;9.758;2023-08-07T13:10:32;2.97;;;1.80;;
5650;SDS011;40241;52.684;9.758;2023-08-07T13:12:57;2.10;;;1.53;;
5650;SDS011;40241;52.684;9.758;2023-08-07T13:15:23;4.53;;;1.10;;
5650;SDS011;40241;52.684;9.758;2023-08-07T13:17:50;3.83;;;1.77;;
5650;SDS011;40241;52.684;9.758;2023-08-07T13:20:15;4.77;;;1.87;;
5650;SDS011;40241;52.684;9.758;2023-08-07T13:22:41;2.23;;;1.40;;
5650;SDS011;40241;52.684;9.758;2023-08-07T13:25:07;2.70;;;1.20;;
5650;SDS011;40241;52.684;9.758;2023-08-07T13:27:34;3.83;;;1.10;;
5650;SDS011;40241;52.684;9.758;2023-08-07T13:30:00;2.53;;;1.20;;
5650;SDS011;40241;52.684;9.758;2023-08-07T13:32:26;1.63;;;0.93;;
5650;SDS011;40241;52.684;9.758;2023-08-07T13:34:52;2.37;;;1.13;;
5650;SDS011;40241;52.684;9.758;2023-08-07T13:37:17;3.40;;;1.67;;
5650;SDS011;40241;52.684;9.758;2023-08-07T13:39:43;1.40;;;1.07;;
5650;SDS011;40241;52.684;9.758;2023-08-07T13:42:08;3.63;;;1.47;;
5650;SDS011;40241;52.684;9.758;2023-08-07T13:44:35;3.03;;;1.53;;
5650;SDS011;40241;52.684;9.758;2023-08-07T13:47:00;2.37;;;1.60;;
5650;SDS011;40241;52.684;9.758;2023-08-07T13:49:26;2.83;;;1.27;;
5650;SDS011;40241;52.684;9.758;2023-08-07T13:51:51;4.07;;;1.47;;
5650;SDS011;40241;52.684;9.758;2023-08-07T13:54:17;2.37;;;1.50;;
5650;SDS011;40241;52.684;9.758;2023-08-07T13:56:42;3.10;;;1.13;;
5650;SDS011;40241;52.684;9.758;2023-08-07T13:59:08;3.17;;;1.50;;
5650;SDS011;40241;52.684;9.758;2023-08-07T14:01:34;2.70;;;1.40;;
5650;SDS011;40241;52.684;9.758;2023-08-07T14:04:00;2.87;;;1.20;;
5650;SDS011;40241;52.684;9.758;2023-08-07T14:06:26;1.77;;;1.20;;
5650;SDS011;40241;52.684;9.758;2023-08-07T14:08:51;2.33;;;1.10;;
5650;SDS011;40241;52.684;9.758;2023-08-07T14:11:17;6.10;;;1.03;;
5650;SDS011;40241;52.684;9.758;2023-08-07T14:13:42;1.93;;;1.20;;
5650;SDS011;40241;52.684;9.758;2023-08-07T14:16:08;1.40;;;1.10;;
5650;SDS011;40241;52.684;9.758;2023-08-07T14:18:34;2.13;;;1.20;;
5650;SDS011;40241;52.684;9.758;2023-08-07T14:20:59;1.27;;;1.03;;
5650;SDS011;40241;52.684;9.758;2023-08-07T14:23:24;2.90;;;1.40;;
5650;SDS011;40241;52.684;9.758;2023-08-07T14:25:50;3.27;;;1.50;;
5650;SDS011;40241;52.684;9.758;2023-08-07T14:28:17;2.50;;;1.13;;
5650;SDS011;40241;52.684;9.758;2023-08-07T14:30:43;1.37;;;1.20;;
5650;SDS011;40241;52.684;9.758;2023-08-07T14:33:08;1.80;;;1.50;;
5650;SDS011;40241;52.684;9.758;2023-08-07T14:35:33;1.43;;;1.20;;
5650;SDS011;40241;52.684;9.758;2023-08-07T14:37:59;7.37;;;1.80;;
5650;SDS011;40241;52.684;9.758;2023-08-07T14:40:24;2.80;;;1.43;;
5650;SDS011;40241;52.684;9.758;2023-08-07T14:42:49;6.83;;;1.67;;
5650;SDS011;40241;52.684;9.758;2023-08-07T14:45:15;3.03;;;1.23;;
5650;SDS011;40241;52.684;9.758;2023-08-07T14:47:42;1.90;;;1.50;;
5650;SDS011;40241;52.684;9.758;2023-08-07T14:50:08;3.40;;;1.60;;
5650;SDS011;40241;52.684;9.758;2023-08-07T14:52:33;2.90;;;1.53;;
5650;SDS011;40241;52.684;9.758;2023-08-07T14:54:58;2.97;;;1.27;;
5650;SDS011;40241;52.684;9.758;2023-08-07T14:57:24;2.77;;;1.60;;